This is the latest recevied weather packets stored in our database for station/object KB1JL-13. If no packets are shown the sender has not sent any weather packets the latest 10 day(s).
| Time | Temp. | Humidity | Pressure | Rain* | Wind** | Luminosity | Snow |
|---|---|---|---|---|---|---|---|
| 1788610474 | 18.33° C | 89% | 1022.6 hPa | 0 mm | - | 95 W/m² | - |
| 1788610173 | 18.33° C | 89% | 1022.6 hPa | 0 mm | - | 93 W/m² | - |
| 1788609868 | 18.33° C | 88% | 1022.6 hPa | 0 mm | - | 82 W/m² | - |
| 1788609563 | 18.33° C | 88% | 1022.2 hPa | 0 mm | - | 69 W/m² | - |
| 1788609261 | 18.89° C | 87% | 1022.2 hPa | 0 mm | - | 65 W/m² | - |
| 1788608957 | 18.89° C | 87% | 1022.2 hPa | 0 mm | - | 76 W/m² | - |
| 1788608656 | 18.89° C | 88% | 1021.9 hPa | 0 mm | - | 72 W/m² | - |
| 1788608350 | 18.89° C | 90% | 1022.2 hPa | 0 mm | - | 117 W/m² | - |
| 1788608045 | 17.22° C | 94% | 1022.2 hPa | 0 mm | - | 99 W/m² | - |
| 1788607741 | 17.22° C | 95% | 1021.9 hPa | 0 mm | - | 56 W/m² | - |
| 1788607436 | 16.67° C | 98% | 1022.2 hPa | 0 mm | - | 47 W/m² | - |
| 1788607131 | 16.11° C | 99% | 1021.9 hPa | 0 mm | - | 33 W/m² | - |
| 1788606825 | 15.56° C | 99% | 1021.9 hPa | 0 mm | - | 26 W/m² | - |
| 1788606524 | 15.56° C | 99% | 1021.6 hPa | 0 mm | - | 29 W/m² | - |
| 1788606218 | 15.56° C | 99% | 1021.9 hPa | 0 mm | - | 26 W/m² | - |
| 1788605913 | 15° C | 99% | 1021.6 hPa | 0 mm | - | 18 W/m² | - |
| 1788605613 | 15° C | 98% | 1021.6 hPa | 0 mm | - | 13 W/m² | - |
| 1788605307 | 15° C | 98% | 1021.6 hPa | 0 mm | - | 10 W/m² | - |
| 1788605004 | 15° C | 98% | 1021.6 hPa | 0 mm | - | 9 W/m² | - |
| 1788604703 | 15° C | 98% | 1021.6 hPa | 0 mm | - | 6 W/m² | - |
| 1788604399 | 15° C | 98% | 1021.6 hPa | 0 mm | - | 4 W/m² | - |
| 1788604095 | 15° C | 98% | 1021.6 hPa | 0 mm | - | 2 W/m² | - |
| 1788603791 | 15° C | 98% | 1021.6 hPa | 0 mm | - | 0 W/m² | - |
| 1788603491 | 15.56° C | 98% | 1021.6 hPa | 0 mm | - | 0 W/m² | - |
| 1788603189 | 15.56° C | 98% | 1021.2 hPa | 0 mm | - | 0 W/m² | - |
* Rain latest hour (hover to see other rain measurements)
** Current wind speed in m/s (hover to see current wind gust speed)